Time;durP1;ratioP1;P1;durP2;ratioP2;P2;SDS_P1;SDS_P2;PMS_P1;PMS_P2;Temp;Humidity;BMP_temperature;BMP_pressure;BME280_temperature;BME280_humidity;BME280_pressure;Samples;Min_cycle;Max_cycle;Signal;HPM_P1;HPM_P2
2022/11/05 00:09:44;;;;;;;;;19.50;17.00;;;;;9.34;69.22;101558.44;4942182;28;45180;-76
2022/11/05 00:17:41;;;;;;;;;18.50;13.25;;;;;9.31;69.23;101557.50;4928996;28;45544;-77
2022/11/05 00:20:08;;;;;;;;;13.25;12.00;;;;;9.34;69.13;101571.56;4909006;28;45271;-77
2022/11/05 00:25:19;;;;;;;;;13.75;12.50;;;;;9.18;69.10;101543.31;4922838;28;45487;-76
2022/11/05 00:27:47;;;;;;;;;12.75;11.00;;;;;9.15;69.46;101524.88;4923068;28;45458;-76
2022/11/05 00:30:17;;;;;;;;;15.50;15.50;;;;;9.28;69.24;101545.22;4923016;28;45290;-76
2022/11/05 00:32:43;;;;;;;;;11.75;11.75;;;;;9.53;69.05;101587.59;4934771;28;45498;-76
2022/11/05 00:35:09;;;;;;;;;12.00;10.75;;;;;9.29;68.80;101544.34;4922907;28;45571;-77
2022/11/05 00:37:34;;;;;;;;;12.00;11.25;;;;;9.40;69.19;101571.66;4920211;28;47269;-77
2022/11/05 00:40:00;;;;;;;;;14.25;12.50;;;;;9.22;69.27;101548.63;4922666;28;45366;-76
2022/11/05 00:45:09;;;;;;;;;15.00;13.00;;;;;9.39;68.93;101590.03;4942163;28;45553;-76
2022/11/05 00:50:20;;;;;;;;;11.00;11.00;;;;;9.15;69.06;101570.41;4922700;28;45292;-76
2022/11/05 00:52:58;;;;;;;;;13.75;12.25;;;;;9.07;69.04;101555.41;4922397;28;45374;-76
2022/11/05 00:55:32;;;;;;;;;13.25;12.50;;;;;9.23;69.22;101586.28;4904930;28;45495;-76
2022/11/05 00:57:59;;;;;;;;;18.75;12.50;;;;;9.25;69.23;101597.72;4930240;28;45280;-76
2022/11/05 01:00:27;;;;;;;;;16.75;12.25;;;;;9.13;69.07;101573.88;4909768;28;45465;-76
2022/11/05 01:02:55;;;;;;;;;10.25;10.25;;;;;8.92;69.27;101541.16;4905213;28;45391;-76
2022/11/05 01:05:21;;;;;;;;;14.50;11.00;;;;;8.88;69.17;101539.34;4921120;28;45364;-77
2022/11/05 01:07:46;;;;;;;;;12.75;11.75;;;;;9.02;69.35;101550.06;4922434;28;46380;-77
2022/11/05 01:10:12;;;;;;;;;14.75;10.50;;;;;9.11;69.30;101578.22;4904953;28;45282;-76
2022/11/05 01:12:37;;;;;;;;;12.75;12.00;;;;;9.20;69.37;101584.50;4930019;28;45293;-75
2022/11/05 01:15:03;;;;;;;;;12.75;11.25;;;;;9.18;69.17;101582.72;4926564;28;45488;-76
2022/11/05 01:17:28;;;;;;;;;13.75;13.75;;;;;9.12;69.16;101566.88;4909362;28;45723;-77
2022/11/05 01:19:54;;;;;;;;;12.25;11.75;;;;;9.12;69.49;101561.63;4926878;28;45243;-77
2022/11/05 01:22:19;;;;;;;;;10.00;9.75;;;;;8.94;69.32;101541.19;4922592;28;45236;-76
2022/11/05 01:24:45;;;;;;;;;13.50;11.50;;;;;8.98;69.24;101538.66;4921950;28;45233;-76
2022/11/05 01:27:12;;;;;;;;;15.75;12.00;;;;;9.04;69.37;101564.13;4920968;28;47135;-76
2022/11/05 01:29:38;;;;;;;;;11.75;11.50;;;;;8.96;69.59;101547.34;4922325;28;45554;-76
2022/11/05 01:32:03;;;;;;;;;16.50;13.25;;;;;9.04;69.46;101572.00;4920898;28;45305;-76
2022/11/05 01:34:29;;;;;;;;;12.00;12.00;;;;;8.92;69.44;101549.03;4920822;28;45598;-76
2022/11/05 01:36:54;;;;;;;;;12.00;11.00;;;;;9.16;69.24;101597.56;4922098;28;46086;-76
2022/11/05 01:39:20;;;;;;;;;10.25;9.50;;;;;9.16;69.39;101602.81;4920550;28;45713;-76
2022/11/05 01:41:45;;;;;;;;;12.00;11.00;;;;;8.99;69.39;101571.03;4913103;28;45475;-76
2022/11/05 01:44:48;;;;;;;;;12.25;10.75;;;;;9.12;69.38;101599.25;4940115;28;45762;-76
2022/11/05 01:47:26;;;;;;;;;10.75;10.75;;;;;8.90;69.25;101563.91;4941132;28;45651;-77
2022/11/05 01:49:53;;;;;;;;;12.50;11.00;;;;;9.10;69.25;101597.47;4907833;28;45209;-76
2022/11/05 01:52:20;;;;;;;;;11.75;9.50;;;;;8.79;69.37;101542.72;4924032;28;45419;-76
2022/11/05 01:54:46;;;;;;;;;10.00;9.00;;;;;8.98;69.38;101583.28;4923716;28;45712;-76
2022/11/05 01:57:13;;;;;;;;;12.00;9.50;;;;;8.86;69.76;101567.31;4923508;28;48269;-77
2022/11/05 01:59:43;;;;;;;;;10.75;10.50;;;;;8.92;69.74;101587.53;4907866;28;45512;-76
2022/11/05 02:02:09;;;;;;;;;14.25;11.50;;;;;8.58;69.87;101534.44;4924046;28;45447;-76
2022/11/05 02:04:42;;;;;;;;;9.25;9.25;;;;;8.98;69.64;101603.38;4923797;28;45425;-76
2022/11/05 02:07:11;;;;;;;;;11.75;10.50;;;;;8.58;69.81;101531.81;4925156;28;45562;-76
2022/11/05 02:09:56;;;;;;;;;11.75;10.00;;;;;8.93;69.90;101597.22;4925006;28;45404;-76
2022/11/05 02:12:22;;;;;;;;;8.00;6.25;;;;;8.91;69.92;101596.28;4930327;28;45298;-76
2022/11/05 02:14:47;;;;;;;;;9.50;9.25;;;;;8.47;69.97;101515.91;4926764;28;45517;-76
2022/11/05 02:17:35;;;;;;;;;11.25;9.50;;;;;8.90;69.88;101578.75;4926316;28;47380;-76
2022/11/05 02:20:05;;;;;;;;;11.75;10.75;;;;;8.58;69.86;101532.75;4928721;28;45401;-76
2022/11/05 02:22:43;;;;;;;;;8.50;8.50;;;;;8.82;70.00;101565.47;4924983;28;45347;-77
2022/11/05 02:25:11;;;;;;;;;9.25;8.75;;;;;8.91;70.18;101586.66;4924423;28;45430;-76
2022/11/05 02:28:10;;;;;;;;;7.25;5.50;;;;;8.92;70.12;101590.16;4923421;28;46422;-77
2022/11/05 02:30:46;;;;;;;;;9.75;9.75;;;;;8.90;70.09;101605.91;4933957;28;45239;-76
2022/11/05 02:33:11;;;;;;;;;9.25;8.50;;;;;8.89;70.54;101598.88;4926456;28;45479;-77
2022/11/05 02:35:47;;;;;;;;;14.75;10.00;;;;;8.78;70.01;101584.69;4926613;28;45686;-76
2022/11/05 02:38:38;;;;;;;;;10.25;9.50;;;;;8.86;70.16;101597.94;4926059;28;46998;-78
2022/11/05 02:41:17;;;;;;;;;13.25;10.50;;;;;8.86;70.24;101600.56;4926099;28;45310;-77
2022/11/05 02:44:28;;;;;;;;;11.25;11.25;;;;;8.71;70.36;101569.69;4942508;28;45458;-76
2022/11/05 02:46:53;;;;;;;;;8.50;8.50;;;;;8.88;70.25;101597.13;4943459;28;45267;-77
2022/11/05 02:49:30;;;;;;;;;9.00;8.00;;;;;8.84;70.23;101579.53;4942239;28;46960;-78
2022/11/05 02:51:58;;;;;;;;;8.75;8.25;;;;;8.95;70.27;101585.84;4932449;28;45292;-78
2022/11/05 02:54:46;;;;;;;;;11.00;11.00;;;;;8.86;70.18;101562.06;4906899;28;45482;-77
2022/11/05 02:57:11;;;;;;;;;12.50;10.50;;;;;8.75;70.15;101538.25;4922799;28;45400;-78
2022/11/05 02:59:37;;;;;;;;;10.75;10.50;;;;;9.10;69.99;101581.72;4923511;28;46126;-78
2022/11/05 03:02:05;;;;;;;;;11.50;9.25;;;;;9.05;69.87;101563.25;4924280;28;45202;-78
2022/11/05 03:04:31;;;;;;;;;11.00;8.50;;;;;9.11;69.79;101557.19;4924376;28;45170;-78
2022/11/05 03:07:11;;;;;;;;;8.00;8.00;;;;;9.01;69.84;101541.31;4922674;28;45613;-77
2022/11/05 03:10:08;;;;;;;;;10.00;8.25;;;;;9.26;69.64;101574.09;4922370;28;47703;-77
2022/11/05 03:12:57;;;;;;;;;9.50;9.50;;;;;9.08;69.49;101551.91;4930057;28;45278;-78
2022/11/05 03:15:25;;;;;;;;;12.25;10.00;;;;;9.29;69.65;101573.25;4943272;28;45545;-78
2022/11/05 03:18:11;;;;;;;;;12.75;11.00;;;;;9.29;69.55;101583.75;4942891;28;45509;-77
2022/11/05 03:20:53;;;;;;;;;15.50;10.75;;;;;9.28;69.54;101588.13;4924288;28;46584;-77
2022/11/05 03:23:37;;;;;;;;;9.00;9.00;;;;;9.26;69.16;101576.72;4906347;28;45503;-76
2022/11/05 03:26:09;;;;;;;;;10.50;9.25;;;;;9.18;69.47;101567.81;4924117;28;45505;-76
2022/11/05 03:28:38;;;;;;;;;10.00;9.50;;;;;8.89;69.50;101511.34;4922605;28;45396;-76
2022/11/05 03:31:07;;;;;;;;;8.00;7.00;;;;;9.23;69.69;101570.53;4922530;28;48099;-78
2022/11/05 03:33:35;;;;;;;;;9.50;8.50;;;;;8.99;69.50;101521.13;4930548;28;45462;-79
2022/11/05 03:36:08;;;;;;;;;9.25;9.25;;;;;9.07;69.67;101543.16;4925614;28;45395;-75
2022/11/05 03:38:39;;;;;;;;;8.75;7.00;;;;;9.08;69.54;101550.16;4924674;28;45243;-77
2022/11/05 03:41:08;;;;;;;;;9.50;8.00;;;;;9.26;69.79;101575.84;4942825;28;45431;-79
2022/11/05 03:43:39;;;;;;;;;8.50;6.50;;;;;9.37;69.61;101576.00;4941630;28;45487;-76
2022/11/05 03:46:32;;;;;;;;;8.25;7.50;;;;;9.41;69.50;101564.66;4925445;28;45294;-75
2022/11/05 03:49:03;;;;;;;;;8.25;7.25;;;;;9.40;69.20;101573.41;4921579;28;45427;-78
2022/11/05 03:51:45;;;;;;;;;7.25;7.25;;;;;9.03;69.40;101507.19;4906194;28;47292;-78
2022/11/05 03:54:13;;;;;;;;;7.50;7.50;;;;;9.38;69.33;101578.66;4905826;28;45371;-76
2022/11/05 03:57:03;;;;;;;;;9.50;9.00;;;;;9.38;69.52;101568.16;4906171;28;45277;-76
2022/11/05 03:59:39;;;;;;;;;13.25;7.50;;;;;9.21;69.66;101549.47;4930225;28;45489;-77
2022/11/05 04:02:04;;;;;;;;;9.00;8.50;;;;;9.15;69.38;101524.88;4925012;28;46416;-77
2022/11/05 04:04:30;;;;;;;;;9.75;8.25;;;;;9.02;69.43;101498.41;4925676;28;45443;-78
2022/11/05 04:15:07;;;;;;;;;8.25;6.50;;;;;9.27;69.55;101553.94;4942609;28;45348;-78
2022/11/05 04:18:02;;;;;;;;;6.50;5.75;;;;;9.09;69.50;101528.31;4942173;28;45522;-77
2022/11/05 04:26:22;;;;;;;;;9.50;6.50;;;;;9.17;69.69;101559.94;4876868;29;45563;-77
2022/11/05 04:31:34;;;;;;;;;9.75;8.00;;;;;9.37;69.77;101587.38;4912588;28;45221;-76
2022/11/05 04:34:00;;;;;;;;;9.75;7.75;;;;;9.40;69.63;101597.06;4924731;28;48450;-78
2022/11/05 04:36:26;;;;;;;;;8.00;8.00;;;;;9.16;69.84;101555.53;4924657;28;45687;-77
2022/11/05 04:38:51;;;;;;;;;9.75;7.50;;;;;8.99;69.63;101537.78;4924812;28;45466;-78
2022/11/05 04:41:17;;;;;;;;;5.50;5.50;;;;;9.37;69.76;101602.28;4942208;28;45594;-77
2022/11/05 04:43:43;;;;;;;;;8.75;5.75;;;;;9.13;70.01;101564.25;4924680;28;47875;-77
2022/11/05 04:46:09;;;;;;;;;9.75;8.25;;;;;9.00;69.88;101528.13;4924585;28;46519;-78
2022/11/05 04:48:37;;;;;;;;;10.00;8.25;;;;;8.99;69.89;101521.13;4914261;28;45454;-77
2022/11/05 04:51:03;;;;;;;;;12.75;10.75;;;;;9.39;69.90;101595.31;4904965;28;45325;-77
2022/11/05 04:53:30;;;;;;;;;9.75;8.00;;;;;8.98;69.83;101528.13;4922457;28;45296;-78
2022/11/05 04:56:11;;;;;;;;;10.50;9.00;;;;;9.31;69.80;101573.28;4905272;28;45394;-77
2022/11/05 04:58:40;;;;;;;;;7.75;6.25;;;;;9.05;69.79;101544.84;4921362;28;45436;-77
2022/11/05 05:01:19;;;;;;;;;10.00;9.00;;;;;8.98;70.16;101535.09;4905417;28;45254;-77
2022/11/05 05:03:49;;;;;;;;;11.00;10.00;;;;;9.37;70.12;101611.03;4905082;28;47850;-77
2022/11/05 05:06:16;;;;;;;;;9.50;9.00;;;;;9.20;70.00;101571.38;4922641;28;45351;-76
2022/11/05 05:08:41;;;;;;;;;13.00;10.00;;;;;9.15;70.14;101575.66;4922254;28;45230;-77
2022/11/05 05:11:12;;;;;;;;;5.00;3.25;;;;;9.04;70.17;101553.59;4905267;28;45502;-77
2022/11/05 05:13:40;;;;;;;;;13.00;12.00;;;;;9.12;70.07;101566.88;4905175;28;47331;-77
2022/11/05 05:16:20;;;;;;;;;9.75;9.75;;;;;9.15;70.27;101566.91;4922216;28;45240;-77
2022/11/05 05:18:46;;;;;;;;;12.25;11.75;;;;;9.34;70.18;101596.97;4914484;28;45348;-77
2022/11/05 05:23:56;;;;;;;;;9.50;8.75;;;;;9.30;70.33;101590.75;4932363;28;45892;-77
2022/11/05 05:26:21;;;;;;;;;8.75;7.75;;;;;9.45;70.46;101621.66;4923926;28;45447;-77
2022/11/05 05:28:47;;;;;;;;;9.25;8.75;;;;;9.38;70.33;101610.19;4916219;28;45354;-77
2022/11/05 05:31:13;;;;;;;;;6.50;5.75;;;;;9.27;70.47;101586.38;4917889;28;45262;-76
2022/11/05 05:33:39;;;;;;;;;10.75;6.75;;;;;9.12;70.37;101564.25;4905129;28;47870;-77
2022/11/05 05:36:05;;;;;;;;;7.50;7.50;;;;;9.17;70.21;101580.97;4922132;28;45233;-76
2022/11/05 05:38:30;;;;;;;;;9.50;8.00;;;;;8.99;70.57;101561.41;4905068;28;45418;-77
2022/11/05 05:40:58;;;;;;;;;10.75;6.00;;;;;9.34;70.27;101621.50;4906261;28;45278;-76
2022/11/05 05:43:23;;;;;;;;;11.25;9.00;;;;;9.33;70.56;101625.00;4941242;28;46549;-76
2022/11/05 05:45:49;;;;;;;;;11.25;9.75;;;;;9.17;70.81;101599.34;4941172;28;45545;-76
2022/11/05 05:48:15;;;;;;;;;12.25;10.25;;;;;8.95;70.65;101575.34;4915792;28;45491;-76
2022/11/05 05:50:40;;;;;;;;;5.00;5.00;;;;;9.03;70.44;101576.38;4904921;28;45424;-77
2022/11/05 05:53:06;;;;;;;;;4.75;4.25;;;;;8.98;70.36;101570.16;4921756;28;46203;-76
2022/11/05 05:55:31;;;;;;;;;7.50;6.50;;;;;9.22;70.59;101614.31;4904278;28;45347;-76
2022/11/05 05:57:57;;;;;;;;;6.50;6.50;;;;;9.09;70.61;101587.81;4922021;28;45246;-76
2022/11/05 06:00:22;;;;;;;;;7.00;5.50;;;;;9.14;71.00;101602.81;4921999;28;45222;-76
2022/11/05 06:02:48;;;;;;;;;8.00;6.00;;;;;9.03;70.86;101589.50;4921689;28;45232;-76
2022/11/05 06:05:13;;;;;;;;;7.75;7.75;;;;;8.87;70.86;101569.06;4921831;28;45165;-76
2022/11/05 06:07:39;;;;;;;;;9.00;8.25;;;;;9.04;70.93;101593.00;4904906;28;45220;-76
2022/11/05 06:10:05;;;;;;;;;9.50;8.25;;;;;9.05;71.01;101592.13;4921365;28;45430;-77
2022/11/05 06:12:30;;;;;;;;;11.00;9.50;;;;;9.07;71.02;101581.66;4904634;28;47780;-77
2022/11/05 06:14:56;;;;;;;;;6.25;5.25;;;;;9.12;70.94;101606.28;4920443;28;45256;-76
2022/11/05 06:17:24;;;;;;;;;9.25;9.25;;;;;9.01;71.20;101591.22;4908322;28;45428;-77
2022/11/05 06:19:50;;;;;;;;;9.00;6.00;;;;;9.04;71.34;101596.50;4923059;28;45852;-76
2022/11/05 06:22:15;;;;;;;;;7.50;5.25;;;;;9.06;70.94;101607.03;4923428;28;45615;-76
2022/11/05 06:24:41;;;;;;;;;8.00;6.00;;;;;9.15;71.24;101615.06;4923044;28;45450;-76
2022/11/05 06:27:06;;;;;;;;;8.75;7.25;;;;;9.28;71.09;101629.28;4941136;28;45928;-76
2022/11/05 06:29:32;;;;;;;;;8.50;7.75;;;;;9.03;71.04;101579.00;4923306;28;45483;-76
2022/11/05 06:31:57;;;;;;;;;6.00;5.50;;;;;9.10;71.10;101593.09;4940778;28;45856;-76
2022/11/05 06:34:22;;;;;;;;;5.25;5.25;;;;;9.26;70.78;101623.13;4940648;28;45280;-76
2022/11/05 06:36:48;;;;;;;;;6.50;5.75;;;;;9.06;70.99;101575.50;4926368;28;45288;-76
2022/11/05 06:39:13;;;;;;;;;5.25;4.00;;;;;9.13;71.04;101577.38;4943445;28;45179;-77
2022/11/05 06:41:42;;;;;;;;;5.75;5.75;;;;;9.17;70.81;101584.47;4933497;28;48122;-77
2022/11/05 06:44:07;;;;;;;;;6.25;5.50;;;;;9.09;70.71;101566.78;4935513;28;45392;-76
2022/11/05 06:46:33;;;;;;;;;9.00;9.00;;;;;9.43;70.89;101637.38;4912039;28;45756;-76
2022/11/05 06:49:03;;;;;;;;;7.75;7.75;;;;;9.28;70.90;101600.38;4912991;28;46288;-77
2022/11/05 06:51:29;;;;;;;;;8.25;5.50;;;;;9.58;70.65;101654.28;4923395;28;46117;-77
2022/11/05 06:53:54;;;;;;;;;7.75;5.00;;;;;9.59;70.50;101654.28;4924031;28;45235;-76
2022/11/05 06:56:20;;;;;;;;;9.75;5.25;;;;;9.62;70.44;101646.47;4907303;28;45343;-77
2022/11/05 06:58:45;;;;;;;;;3.25;3.25;;;;;9.46;70.50;101624.31;4922866;28;45233;-77
2022/11/05 07:01:10;;;;;;;;;5.00;5.00;;;;;9.52;70.68;101623.53;4907102;28;47323;-76
2022/11/05 07:03:39;;;;;;;;;5.25;5.25;;;;;9.52;70.23;101623.53;4907118;28;45213;-76
2022/11/05 07:06:06;;;;;;;;;8.75;6.00;;;;;9.34;70.35;101591.72;4923014;28;45494;-77
2022/11/05 07:08:33;;;;;;;;;6.00;6.00;;;;;9.58;70.03;101622.72;4906564;28;45439;-76
2022/11/05 07:10:59;;;;;;;;;6.00;5.00;;;;;9.64;70.14;101628.06;4924149;28;46507;-76
2022/11/05 07:13:24;;;;;;;;;7.25;5.75;;;;;9.62;69.94;101620.19;4924086;28;45458;-76
2022/11/05 07:15:50;;;;;;;;;3.75;3.75;;;;;9.59;70.12;101611.34;4923782;28;45315;-76
2022/11/05 07:18:15;;;;;;;;;7.00;5.25;;;;;9.66;70.07;101627.22;4915360;28;45493;-77
2022/11/05 07:20:41;;;;;;;;;5.75;5.00;;;;;9.71;69.89;101630.81;4922581;28;46650;-76
2022/11/05 07:23:10;;;;;;;;;5.00;5.00;;;;;9.53;69.94;101579.72;4921979;28;45214;-76
2022/11/05 07:25:36;;;;;;;;;8.00;6.00;;;;;9.70;69.82;101615.91;4924009;28;45329;-76
2022/11/05 07:28:03;;;;;;;;;7.50;5.25;;;;;9.80;69.90;101627.41;4923884;28;45344;-76
2022/11/05 07:30:31;;;;;;;;;5.25;5.25;;;;;9.74;69.77;101602.81;4906636;28;46374;-76
2022/11/05 07:32:59;;;;;;;;;6.50;5.00;;;;;9.85;69.61;101619.59;4922260;28;45280;-76
2022/11/05 07:35:25;;;;;;;;;5.25;5.25;;;;;10.06;69.64;101667.22;4906563;28;45454;-76
2022/11/05 07:37:53;;;;;;;;;5.75;3.00;;;;;10.18;69.83;101674.38;4926341;28;45654;-76
2022/11/05 07:40:23;;;;;;;;;5.00;5.00;;;;;10.01;69.53;101647.00;4915576;28;45775;-76
2022/11/05 07:42:58;;;;;;;;;6.25;4.00;;;;;9.98;69.25;101634.69;4921626;28;45442;-76
2022/11/05 07:45:25;;;;;;;;;9.50;6.00;;;;;10.24;68.98;101678.88;4925265;28;45398;-76
2022/11/05 07:47:56;;;;;;;;;4.75;4.00;;;;;9.91;68.97;101617.91;4920040;28;45573;-77
2022/11/05 07:50:26;;;;;;;;;5.50;5.00;;;;;10.01;68.97;101639.97;4905895;28;47008;-77
2022/11/05 07:52:52;;;;;;;;;5.25;4.00;;;;;10.10;68.95;101639.19;4930094;28;45742;-76
2022/11/05 07:55:19;;;;;;;;;9.50;6.00;;;;;9.98;69.09;101621.53;4918363;28;45290;-77
2022/11/05 07:57:50;;;;;;;;;9.25;4.75;;;;;10.43;69.35;101693.19;4924343;28;45575;-76
2022/11/05 08:06:47;;;;;;;;;5.00;5.00;;;;;10.64;68.69;101679.34;5542140;23;46610;-77
2022/11/05 08:09:13;;;;;;;;;7.75;6.75;;;;;10.46;68.58;101643.19;4924472;28;45682;-76
2022/11/05 08:11:38;;;;;;;;;6.25;6.00;;;;;10.66;68.62;101670.59;4941754;28;45494;-77
2022/11/05 08:14:04;;;;;;;;;6.50;5.25;;;;;10.63;68.29;101659.16;4924687;28;45871;-76
2022/11/05 08:16:29;;;;;;;;;5.25;4.00;;;;;10.60;68.26;101641.59;4924657;28;45306;-76
2022/11/05 08:18:55;;;;;;;;;6.25;5.50;;;;;10.94;67.97;101690.22;4932993;28;45225;-75
2022/11/05 08:21:20;;;;;;;;;6.00;5.50;;;;;10.86;67.83;101660.28;4941624;28;45430;-75
2022/11/05 08:23:48;;;;;;;;;5.25;5.25;;;;;10.90;67.67;101659.44;4941202;28;45480;-79
2022/11/05 08:26:14;;;;;;;;;5.00;5.00;;;;;10.86;67.20;101652.38;4941838;28;45312;-77
2022/11/05 08:28:54;;;;;;;;;2.00;1.75;;;;;11.10;67.09;101671.94;4941818;28;45409;-79
2022/11/05 08:31:25;;;;;;;;;5.75;4.75;;;;;10.84;67.29;101627.78;4941380;28;45539;-78
2022/11/05 08:33:58;;;;;;;;;4.00;4.00;;;;;11.14;66.98;101668.44;4941362;28;45477;-78
2022/11/05 08:36:26;;;;;;;;;7.25;5.50;;;;;10.98;66.77;101633.16;4924147;28;45437;-78
2022/11/05 08:39:12;;;;;;;;;6.00;4.00;;;;;11.02;66.87;101629.69;4923732;28;45414;-79
2022/11/05 08:41:40;;;;;;;;;5.00;5.00;;;;;11.28;67.18;101664.19;4912736;28;46632;-78
2022/11/05 08:44:09;;;;;;;;;7.00;4.75;;;;;11.36;66.83;101649.31;4940210;28;45384;-80
2022/11/05 08:46:50;;;;;;;;;5.50;3.50;;;;;11.60;66.75;101664.44;4936361;28;45594;-77
2022/11/05 08:49:15;;;;;;;;;5.00;5.00;;;;;11.64;66.62;101658.28;4936963;28;45453;-78
2022/11/05 08:51:42;;;;;;;;;7.25;6.00;;;;;11.94;66.18;101685.75;4923712;28;46083;-77
2022/11/05 08:54:10;;;;;;;;;7.00;6.00;;;;;12.08;65.99;101702.59;4940821;28;45495;-77
2022/11/05 08:56:44;;;;;;;;;7.00;5.25;;;;;12.09;65.53;101695.53;4922387;28;45269;-79
2022/11/05 08:59:10;;;;;;;;;6.75;5.50;;;;;12.05;64.97;101664.72;4939895;28;45402;-77
2022/11/05 09:01:35;;;;;;;;;4.50;4.50;;;;;12.29;64.89;101701.78;4940886;28;46126;-79
2022/11/05 09:04:00;;;;;;;;;1.00;1.00;;;;;12.14;64.74;101654.22;4939716;28;45654;-76
2022/11/05 09:06:35;;;;;;;;;4.25;4.25;;;;;12.25;64.47;101668.34;4944903;28;45204;-78
2022/11/05 09:09:12;;;;;;;;;5.50;3.75;;;;;12.35;64.47;101683.34;4942256;28;45475;-79
2022/11/05 09:11:37;;;;;;;;;4.33;4.33;;;;;12.45;64.09;101684.25;4959784;28;45610;-76
2022/11/05 09:14:08;;;;;;;;;16.75;13.75;;;;;12.67;64.10;101708.09;4960221;28;45407;-80
2022/11/05 09:17:09;;;;;;;;;4.00;3.00;;;;;12.45;63.75;101643.75;4960192;28;45425;-81
2022/11/05 09:20:42;;;;;;;;;;;;;;;;;;;;;
2022/11/05 09:23:57;;;;;;;;;3.00;2.33;;;;;12.78;62.86;101658.81;4894468;29;75283;-78
2022/11/05 09:27:18;;;;;;;;;3.33;3.00;;;;;12.90;62.32;101655.31;4881674;28;45558;-79
2022/11/05 09:30:03;;;;;;;;;2.33;2.33;;;;;12.98;62.07;101658.84;4918065;28;45596;-77
2022/11/05 09:32:32;;;;;;;;;5.33;5.00;;;;;13.13;62.03;101669.44;4940659;28;45486;-77
2022/11/05 09:34:59;;;;;;;;;3.33;3.33;;;;;13.26;61.81;101683.59;4922828;28;47521;-76
2022/11/05 09:37:26;;;;;;;;;3.67;3.67;;;;;13.10;61.73;101658.88;4940742;28;45232;-77
2022/11/05 09:39:51;;;;;;;;;3.00;3.00;;;;;13.33;61.60;101692.38;4940390;28;45501;-75
2022/11/05 09:42:36;;;;;;;;;2.67;2.67;;;;;13.24;61.54;101672.09;4941473;28;45454;-79
2022/11/05 09:45:36;;;;;;;;;4.33;3.00;;;;;13.35;61.00;101693.28;4950413;28;45364;-80
2022/11/05 09:48:37;;;;;;;;;4.33;3.00;;;;;13.32;60.82;101701.22;4925664;28;45212;-81
2022/11/05 09:54:57;;;;;;;;;3.67;3.00;;;;;13.24;60.52;101688.81;4899289;29;45358;-78
2022/11/05 09:57:42;;;;;;;;;3.00;3.00;;;;;13.07;60.62;101660.59;4880007;29;46990;-76
2022/11/05 10:03:21;;;;;;;;;3.00;2.00;;;;;13.35;60.19;101691.50;4843112;29;45552;-77
2022/11/05 10:05:52;;;;;;;;;4.00;4.00;;;;;13.40;60.65;101673.00;4850089;29;45480;-79
2022/11/05 10:08:46;;;;;;;;;3.00;3.00;;;;;13.57;60.38;101675.63;4880097;29;45416;-79
2022/11/05 10:11:20;;;;;;;;;4.33;4.00;;;;;13.65;59.84;101672.06;4884290;29;46118;-77
2022/11/05 10:14:08;;;;;;;;;5.00;5.00;;;;;13.76;59.88;101677.34;4884446;29;45362;-77
2022/11/05 10:16:54;;;;;;;;;4.67;4.00;;;;;13.61;59.83;101649.16;4883875;29;45940;-80
2022/11/05 10:19:55;;;;;;;;;5.67;4.00;;;;;13.73;59.28;101674.72;4874675;29;46793;-79
2022/11/05 10:30:05;;;;;;;;;2.33;2.33;;;;;13.57;59.57;101691.50;4909516;23;45842;-81
2022/11/05 10:32:42;;;;;;;;;4.00;3.00;;;;;13.54;59.43;101681.81;4890458;28;48609;-78
2022/11/05 10:35:44;;;;;;;;;2.67;2.67;;;;;13.63;59.10;101697.69;4922690;28;45270;-78
2022/11/05 10:38:42;;;;;;;;;4.00;3.00;;;;;13.67;59.17;101690.63;4920125;28;45266;-79
2022/11/05 10:41:45;;;;;;;;;28.25;27.50;;;;;13.75;59.20;101698.53;4902392;28;45946;-75
2022/11/05 10:44:59;;;;;;;;;3.33;3.33;;;;;13.76;59.43;101682.63;4907831;28;46248;-76
2022/11/05 10:47:52;;;;;;;;;2.00;2.00;;;;;13.93;59.42;101703.81;4851363;29;45589;-77
2022/11/05 10:54:29;;;;;;;;;3.50;2.75;;;;;14.06;58.99;101697.59;4843429;29;45505;-76
2022/11/05 10:58:03;;;;;;;;;;;;;;;;;;;;;
2022/11/05 11:00:48;;;;;;;;;3.00;3.00;;;;;14.11;58.54;101698.47;4897300;29;45235;-76
2022/11/05 11:04:11;;;;;;;;;4.00;2.67;;;;;14.07;58.71;101691.41;4902818;28;45659;-77
2022/11/05 11:06:42;;;;;;;;;2.00;2.00;;;;;13.88;58.85;101668.53;4838989;29;45613;-75
2022/11/05 11:09:30;;;;;;;;;5.00;4.00;;;;;14.01;59.23;101694.06;4845358;29;45670;-78
2022/11/05 11:12:01;;;;;;;;;3.33;2.67;;;;;13.99;59.01;101679.97;4883676;29;45562;-76
2022/11/05 11:14:27;;;;;;;;;2.00;2.00;;;;;14.12;59.29;101686.97;4903640;29;45366;-75
2022/11/05 11:17:31;;;;;;;;;5.67;4.00;;;;;14.21;59.02;101680.75;4902747;29;45684;-75
2022/11/05 11:20:15;;;;;;;;;3.00;2.33;;;;;14.28;59.00;101684.28;4886121;29;46942;-75
2022/11/05 11:22:40;;;;;;;;;6.33;5.33;;;;;14.26;59.18;101673.69;4901385;29;45525;-75
2022/11/05 11:25:27;;;;;;;;;2.00;2.00;;;;;14.22;59.00;101652.50;4902161;29;45472;-77
2022/11/05 11:27:53;;;;;;;;;5.00;2.67;;;;;14.39;58.86;101658.63;4903225;29;45504;-78
2022/11/05 11:30:19;;;;;;;;;4.00;4.00;;;;;14.46;58.67;101663.00;4910078;28;45421;-76
2022/11/05 11:32:46;;;;;;;;;4.33;3.00;;;;;14.58;58.38;101658.56;4923132;28;45392;-76
2022/11/05 11:35:25;;;;;;;;;1.33;1.33;;;;;14.71;58.40;101653.19;4921886;28;45281;-76
2022/11/05 11:38:01;;;;;;;;;3.67;3.00;;;;;14.85;58.18;101641.59;4921220;28;45556;-79
2022/11/05 11:40:34;;;;;;;;;5.67;5.67;;;;;15.02;57.84;101634.38;4905515;28;48246;-76
2022/11/05 11:43:03;;;;;;;;;3.67;3.67;;;;;15.17;57.33;101639.56;4921277;28;45286;-77
2022/11/05 11:45:52;;;;;;;;;4.00;4.00;;;;;15.32;57.00;101653.63;4922621;28;45518;-77
2022/11/05 11:48:30;;;;;;;;;4.00;3.00;;;;;15.27;56.55;101635.09;4921316;28;45260;-77
2022/11/05 11:50:57;;;;;;;;;3.00;3.00;;;;;15.37;56.66;101643.81;4922594;28;45634;-76
2022/11/05 11:53:23;;;;;;;;;2.33;2.33;;;;;15.41;56.67;101654.41;4920844;28;45476;-76
2022/11/05 11:55:54;;;;;;;;;3.00;3.00;;;;;15.48;56.50;101655.25;4921522;28;45421;-76
2022/11/05 11:58:34;;;;;;;;;1.67;1.67;;;;;15.45;56.06;101639.34;4921468;28;45512;-75
2022/11/05 12:01:48;;;;;;;;;3.00;3.00;;;;;15.68;55.93;101657.69;4910187;28;45514;-80
2022/11/05 12:04:50;;;;;;;;;3.67;2.33;;;;;15.65;55.28;101649.75;4922683;28;45444;-83
2022/11/05 12:07:30;;;;;;;;;1.67;0.67;;;;;15.49;55.10;101646.38;4905563;28;45475;-78
2022/11/05 12:10:35;;;;;;;;;3.33;2.00;;;;;15.38;54.75;101638.50;4920819;28;45265;-78
2022/11/05 12:13:19;;;;;;;;;2.00;2.00;;;;;15.23;54.95;101633.34;4941094;28;46695;-79
2022/11/05 12:16:37;;;;;;;;;3.33;3.00;;;;;14.97;55.02;101604.41;4940174;28;45442;-81
2022/11/05 12:22:51;;;;;;;;;3.00;2.00;;;;;15.05;54.71;101628.19;4817218;29;45354;-90
2022/11/05 12:25:38;;;;;;;;;2.00;2.00;;;;;15.06;54.82;101632.63;4826186;29;45598;-79
2022/11/05 12:28:09;;;;;;;;;2.33;2.00;;;;;15.08;54.89;101631.72;4826172;29;45478;-76
2022/11/05 12:30:53;;;;;;;;;4.67;1.00;;;;;15.11;54.69;101621.06;4882992;28;45375;-75
2022/11/05 12:33:39;;;;;;;;;1.00;1.00;;;;;15.24;54.62;101626.28;4921420;28;45322;-76
2022/11/05 12:36:16;;;;;;;;;1.00;1.00;;;;;15.24;54.11;101619.19;4922209;28;46495;-75
2022/11/05 12:39:18;;;;;;;;;4.00;3.67;;;;;15.37;54.27;101617.28;4922202;28;45407;-76
2022/11/05 12:41:59;;;;;;;;;6.75;4.50;;;;;15.41;54.03;101603.13;4923980;28;45524;-75
2022/11/05 12:44:53;;;;;;;;;5.00;5.00;;;;;15.52;53.92;101611.84;4922396;28;45395;-75
2022/11/05 12:47:24;;;;;;;;;4.00;2.33;;;;;15.47;53.28;101599.50;4921947;28;46420;-75
2022/11/05 12:49:58;;;;;;;;;4.00;3.33;;;;;15.39;53.03;101604.91;4920917;28;45280;-74
2022/11/05 12:52:32;;;;;;;;;4.00;3.33;;;;;15.34;52.96;101602.31;4922338;28;45419;-74
2022/11/05 12:55:14;;;;;;;;;1.33;1.33;;;;;15.19;52.95;101598.00;4921989;28;45406;-74
2022/11/05 12:57:41;;;;;;;;;2.00;2.00;;;;;15.07;52.74;101582.19;4921766;28;46320;-74
2022/11/05 13:00:15;;;;;;;;;3.00;1.67;;;;;15.10;53.23;101602.50;4922253;28;45461;-74
2022/11/05 13:02:50;;;;;;;;;3.00;2.00;;;;;15.04;53.10;101599.91;4922556;28;45337;-74
2022/11/05 13:05:33;;;;;;;;;3.00;2.00;;;;;14.95;52.88;101584.97;4922104;28;45181;-74
2022/11/05 13:08:13;;;;;;;;;1.00;1.00;;;;;14.96;53.44;101573.47;4922030;28;46304;-74
2022/11/05 13:10:51;;;;;;;;;3.00;3.00;;;;;15.02;53.76;101572.53;4921788;28;46211;-74